Eleni — A8UI7 — position and weather

sailwx.info

Track history (hours):
 
Tides and Currents Weather Stations Pressure Air Temp Water Temp Dewpoint Dewpoint Depression Visibility Wind Speed Wind Dir Waves Ship Positions

Eleni

Last reported at 2018-Jun-03 17:55 UTC. Time now 2018-Jun-20 17:10 UTC.
Position N 39°47' W 029°34'.
Warning: this ship's position is 16 days out of date.

Length 274 m; draft 16 m.

Type: Tanker. MMSI: 636014502.

Date/timePositionNaut miles runAvg speedWind from/ knotsBaromVisibWave heightAir tempDewpointWater temp
2018-Jun-03 17:55N 39°47' W 029°34'410.4
2018-Jun-03 17:30N 39°46' W 029°29'510.6
2018-Jun-03 17:00N 39°45' W 029°22'510.5
2018-Jun-03 16:30N 39°44' W 029°15'510.9
2018-Jun-03 16:00N 39°43' W 029°09'611.0
2018-Jun-03 15:30N 39°41' W 029°02'611.1
2018-Jun-03 15:00N 39°40' W 028°55'510.9
2018-Jun-03 14:30N 39°39' W 028°48'510.8
2018-Jun-03 14:00N 39°38' W 028°41'610.9
2018-Jun-03 13:30N 39°36' W 028°34'511.0
2018-Jun-03 13:00N 39°35' W 028°27'510.8
2018-Jun-03 12:30N 39°34' W 028°20'510.8
2018-Jun-03 12:00N 39°33' W 028°13'510.9
2018-Jun-03 11:30N 39°32' W 028°06'611.0
2018-Jun-03 10:59N 39°30' W 027°59'511.1
2018-Jun-03 10:30N 39°29' W 027°52'511.1
2018-Jun-03 10:00N 39°28' W 027°45'611.1
2018-Jun-03 09:30N 39°27' W 027°38'611.1
2018-Jun-03 09:00N 39°26' W 027°31'511.0
2018-Jun-03 08:30N 39°24' W 027°24'610.6
2018-Jun-03 07:59N 39°23' W 027°17'710.8
2018-Jun-03 07:20N 39°22' W 027°08'410.9
2018-Jun-03 07:00N 39°21' W 027°04'710.7
2018-Jun-03 06:20N 39°20' W 026°55'510.5
2018-Jun-03 05:51N 39°18' W 026°49'810.7
2018-Jun-03 05:05N 39°17' W 026°38'110.6
2018-Jun-03 05:00N 39°17' W 026°37'610.6
2018-Jun-03 04:29N 39°15' W 026°30'710.9
2018-Jun-03 03:51N 39°14' W 026°21'410.9
2018-Jun-03 03:30N 39°13' W 026°17'510.8
2018-Jun-03 03:00N 39°12' W 026°10'611.2
2018-Jun-03 02:31N 39°11' W 026°03'911.2
2018-Jun-03 01:42N 39°09' W 025°51'311.4
2018-Jun-03 01:28N 39°09' W 025°48'1611.8
2018-Jun-03 00:06N 39°05' W 025°28'211.8
2018-Jun-02 23:55N 39°04' W 025°25'611.6
2018-Jun-02 23:24N 39°03' W 025°18'511.6
2018-Jun-02 23:00N 39°02' W 025°12'611.6
2018-Jun-02 22:30N 39°01' W 025°05'611.5
2018-Jun-02 21:57N 38°60' W 024°57'511.6
2018-Jun-02 21:30N 38°58' W 024°50'1811.6
2018-Jun-02 19:55N 38°54' W 024°27'8011.6
2018-Jun-02 13:02N 38°38' W 022°47'1411.8
2018-Jun-02 11:52N 38°35' W 022°30'412.0
2018-Jun-02 11:30N 38°34' W 022°24'611.7
2018-Jun-02 11:00N 38°32' W 022°17'611.7
2018-Jun-02 10:30N 38°31' W 022°10'611.5
2018-Jun-02 10:00N 38°30' W 022°03'611.4
2018-Jun-02 09:30N 38°29' W 021°55'611.5
2018-Jun-02 09:00N 38°28' W 021°48'611.6
2018-Jun-02 08:30N 38°26' W 021°41'611.7
2018-Jun-02 08:00N 38°25' W 021°34'3411.8
2018-Jun-02 05:07N 38°18' W 020°51'111.8
2018-Jun-02 05:00N 38°17' W 020°50'1211.9
2018-Jun-02 03:58N 38°15' W 020°34'612.1
2018-Jun-02 03:30N 38°14' W 020°27'712.2
2018-Jun-02 02:55N 38°12' W 020°18'812.3
2018-Jun-02 02:18N 38°10' W 020°09'1412.2
2018-Jun-02 01:08N 38°07' W 019°51'512.0
2018-Jun-02 00:41N 38°06' W 019°44'  
2018-May-30 13:02N 35°58' W 005°33'210.1
2018-May-30 12:51N 35°59' W 005°31'3 9.7
2018-May-30 12:30N 35°60' W 005°27'5 9.8
2018-May-30 11:58N 36°02' W 005°21'4 9.0
2018-May-30 11:30N 36°04' W 005°17'0 0.7
2018-May-30 11:00N 36°04' W 005°16'1 1.0
2018-May-30 10:30N 36°04' W 005°16'2 4.5
2018-May-30 09:59N 36°03' W 005°13'  
Track history (hours):
 
Tides and Currents Weather Stations Pressure Air Temp Water Temp Dewpoint Dewpoint Depression Visibility Wind Speed Wind Dir Waves Ship Positions

Eleni

Last reported at 2018-Jun-03 17:55 UTC. Time now 2018-Jun-20 17:10 UTC.
Position N 39°47' W 029°34'.
Warning: this ship's position is 16 days out of date.

Length 274 m; draft 16 m.

Type: Tanker. MMSI: 636014502.

Date/timePositionNaut miles runAvg speedWind from/ knotsBaromVisibWave heightAir tempDewpointWater temp
2018-Jun-03 17:55N 39°47' W 029°34'410.4
2018-Jun-03 17:30N 39°46' W 029°29'510.6
2018-Jun-03 17:00N 39°45' W 029°22'510.5
2018-Jun-03 16:30N 39°44' W 029°15'510.9
2018-Jun-03 16:00N 39°43' W 029°09'611.0
2018-Jun-03 15:30N 39°41' W 029°02'611.1
2018-Jun-03 15:00N 39°40' W 028°55'510.9
2018-Jun-03 14:30N 39°39' W 028°48'510.8
2018-Jun-03 14:00N 39°38' W 028°41'610.9
2018-Jun-03 13:30N 39°36' W 028°34'511.0
2018-Jun-03 13:00N 39°35' W 028°27'510.8
2018-Jun-03 12:30N 39°34' W 028°20'510.8
2018-Jun-03 12:00N 39°33' W 028°13'510.9
2018-Jun-03 11:30N 39°32' W 028°06'611.0
2018-Jun-03 10:59N 39°30' W 027°59'511.1
2018-Jun-03 10:30N 39°29' W 027°52'511.1
2018-Jun-03 10:00N 39°28' W 027°45'611.1
2018-Jun-03 09:30N 39°27' W 027°38'611.1
2018-Jun-03 09:00N 39°26' W 027°31'511.0
2018-Jun-03 08:30N 39°24' W 027°24'610.6
2018-Jun-03 07:59N 39°23' W 027°17'710.8
2018-Jun-03 07:20N 39°22' W 027°08'410.9
2018-Jun-03 07:00N 39°21' W 027°04'710.7
2018-Jun-03 06:20N 39°20' W 026°55'510.5
2018-Jun-03 05:51N 39°18' W 026°49'810.7
2018-Jun-03 05:05N 39°17' W 026°38'110.6
2018-Jun-03 05:00N 39°17' W 026°37'610.6
2018-Jun-03 04:29N 39°15' W 026°30'710.9
2018-Jun-03 03:51N 39°14' W 026°21'410.9
2018-Jun-03 03:30N 39°13' W 026°17'510.8
2018-Jun-03 03:00N 39°12' W 026°10'611.2
2018-Jun-03 02:31N 39°11' W 026°03'911.2
2018-Jun-03 01:42N 39°09' W 025°51'311.4
2018-Jun-03 01:28N 39°09' W 025°48'1611.8
2018-Jun-03 00:06N 39°05' W 025°28'211.8
2018-Jun-02 23:55N 39°04' W 025°25'611.6
2018-Jun-02 23:24N 39°03' W 025°18'511.6
2018-Jun-02 23:00N 39°02' W 025°12'611.6
2018-Jun-02 22:30N 39°01' W 025°05'611.5
2018-Jun-02 21:57N 38°60' W 024°57'511.6
2018-Jun-02 21:30N 38°58' W 024°50'1811.6
2018-Jun-02 19:55N 38°54' W 024°27'8011.6
2018-Jun-02 13:02N 38°38' W 022°47'1411.8
2018-Jun-02 11:52N 38°35' W 022°30'412.0
2018-Jun-02 11:30N 38°34' W 022°24'611.7
2018-Jun-02 11:00N 38°32' W 022°17'611.7
2018-Jun-02 10:30N 38°31' W 022°10'611.5
2018-Jun-02 10:00N 38°30' W 022°03'611.4
2018-Jun-02 09:30N 38°29' W 021°55'611.5
2018-Jun-02 09:00N 38°28' W 021°48'611.6
2018-Jun-02 08:30N 38°26' W 021°41'611.7
2018-Jun-02 08:00N 38°25' W 021°34'3411.8
2018-Jun-02 05:07N 38°18' W 020°51'111.8
2018-Jun-02 05:00N 38°17' W 020°50'1211.9
2018-Jun-02 03:58N 38°15' W 020°34'612.1
2018-Jun-02 03:30N 38°14' W 020°27'712.2
2018-Jun-02 02:55N 38°12' W 020°18'812.3
2018-Jun-02 02:18N 38°10' W 020°09'1412.2
2018-Jun-02 01:08N 38°07' W 019°51'512.0
2018-Jun-02 00:41N 38°06' W 019°44'  
2018-May-30 13:02N 35°58' W 005°33'210.1
2018-May-30 12:51N 35°59' W 005°31'3 9.7
2018-May-30 12:30N 35°60' W 005°27'5 9.8
2018-May-30 11:58N 36°02' W 005°21'4 9.0
2018-May-30 11:30N 36°04' W 005°17'0 0.7
2018-May-30 11:00N 36°04' W 005°16'1 1.0
2018-May-30 10:30N 36°04' W 005°16'2 4.5
2018-May-30 09:59N 36°03' W 005°13'  

Dump ship's entire track history